Time;durP1;ratioP1;P1;durP2;ratioP2;P2;SDS_P1;SDS_P2;PMS_P1;PMS_P2;Temp;Humidity;BMP_temperature;BMP_pressure;BME280_temperature;BME280_humidity;BME280_pressure;Samples;Min_cycle;Max_cycle;Signal;HPM_P1;HPM_P2
2023/08/19 00:07:30;;;;;;;22.23;17.63;;;15.60;99.90;;;;;;21226265;27;20031;-58
2023/08/19 00:17:32;;;;;;;23.40;17.38;;;15.50;99.90;;;;;;21225383;27;20034;-47
2023/08/19 00:27:34;;;;;;;19.55;14.48;;;15.80;99.90;;;;;;21224662;27;20038;-58
2023/08/19 00:37:36;;;;;;;17.50;13.63;;;15.60;99.90;;;;;;21186473;27;20080;-58
2023/08/19 00:47:40;;;;;;;20.48;13.20;;;15.40;99.90;;;;;;21197081;27;20392;-58
2023/08/19 00:57:43;;;;;;;15.25;11.65;;;15.40;99.90;;;;;;21222861;27;20047;-58
2023/08/19 01:08:01;;;;;;;17.70;9.75;;;15.40;99.90;;;;;;21224056;28;20019;-58
2023/08/19 01:18:05;;;;;;;11.88;9.40;;;15.40;99.90;;;;;;21222501;28;20115;-58
2023/08/19 01:28:07;;;;;;;14.45;9.95;;;15.30;99.90;;;;;;21191964;28;20035;-58
2023/08/19 01:38:24;;;;;;;13.32;10.85;;;15.10;99.90;;;;;;21221951;28;20028;-58
2023/08/19 01:48:26;;;;;;;12.48;10.25;;;15.00;99.90;;;;;;21195198;27;20031;-58
2023/08/19 01:58:28;;;;;;;10.70;9.57;;;15.00;99.90;;;;;;21192299;27;20051;-58
2023/08/19 02:08:30;;;;;;;10.10;8.70;;;14.90;99.90;;;;;;21217737;27;20361;-58
2023/08/19 02:18:32;;;;;;;12.93;9.40;;;14.90;99.90;;;;;;21217337;27;20035;-58
2023/08/19 02:28:34;;;;;;;12.63;10.95;;;14.90;99.90;;;;;;21233830;27;20100;-51
2023/08/19 02:38:35;;;;;;;15.07;11.82;;;14.90;99.90;;;;;;21233647;27;20039;-51
2023/08/19 02:48:37;;;;;;;19.52;15.18;;;14.80;99.90;;;;;;21232752;27;20183;-58
2023/08/19 02:58:39;;;;;;;12.73;10.30;;;14.90;99.90;;;;;;21213095;27;20043;-58
2023/08/19 03:08:41;;;;;;;16.90;11.88;;;15.00;99.90;;;;;;21213103;27;20027;-57
2023/08/19 03:18:43;;;;;;;16.90;13.57;;;14.90;99.90;;;;;;21212527;27;20053;-58
2023/08/19 03:28:45;;;;;;;24.55;18.23;;;15.00;99.90;;;;;;21206783;27;20101;-57
2023/08/19 03:38:47;;;;;;;20.52;14.30;;;15.00;99.90;;;;;;21213866;27;20039;-58
2023/08/19 03:48:49;;;;;;;21.85;18.10;;;14.80;99.90;;;;;;21184914;27;20030;-58
2023/08/19 03:58:51;;;;;;;23.60;19.77;;;14.70;99.90;;;;;;21183268;27;20101;-57
2023/08/19 04:08:52;;;;;;;22.35;17.92;;;14.80;99.90;;;;;;21174674;27;20039;-58
2023/08/19 04:18:55;;;;;;;23.08;17.75;;;14.80;99.90;;;;;;21180819;27;20081;-58
2023/08/19 04:28:57;;;;;;;31.58;22.15;;;14.70;99.90;;;;;;21157303;27;20150;-57
2023/08/19 04:39:05;;;;;;;25.25;20.08;;;14.90;99.90;;;;;;21169473;27;20023;-57
2023/08/19 04:49:07;;;;;;;35.25;21.13;;;14.90;99.90;;;;;;21172031;27;20401;-52
2023/08/19 04:59:10;;;;;;;24.38;17.63;;;15.00;99.90;;;;;;21162968;27;20065;-57
2023/08/19 05:09:13;;;;;;;21.75;17.92;;;15.40;99.90;;;;;;21155590;28;20047;-57
2023/08/19 05:19:19;;;;;;;25.85;19.60;;;15.50;99.90;;;;;;21171550;27;20061;-58
2023/08/19 05:29:22;;;;;;;28.25;20.10;;;15.50;99.90;;;;;;21200355;27;20083;-58
2023/08/19 05:39:24;;;;;;;19.25;15.52;;;15.60;99.90;;;;;;21196967;27;20383;-58
2023/08/19 05:49:27;;;;;;;19.33;15.70;;;15.70;99.90;;;;;;21194194;27;20040;-58
2023/08/19 05:59:29;;;;;;;18.30;14.40;;;15.70;99.90;;;;;;21200380;27;20555;-58
2023/08/19 06:09:31;;;;;;;17.30;12.57;;;15.70;99.90;;;;;;21205759;27;20430;-58
2023/08/19 06:19:34;;;;;;;13.20;11.63;;;15.80;99.90;;;;;;21206423;27;20035;-49
2023/08/19 06:29:36;;;;;;;14.32;11.32;;;16.00;99.90;;;;;;21192577;27;20036;-57
2023/08/19 06:39:48;;;;;;;14.70;8.68;;;16.40;99.90;;;;;;21206173;27;20027;-58
2023/08/19 06:49:50;;;;;;;8.93;8.02;;;18.60;99.90;;;;;;21215958;27;20043;-59
2023/08/19 07:00:00;;;;;;;9.68;8.57;;;20.50;99.90;;;;;;21187515;27;20114;-61
2023/08/19 07:10:05;;;;;;;8.55;7.38;;;22.00;99.90;;;;;;21176757;27;20553;-61
2023/08/19 07:20:09;;;;;;;8.75;7.88;;;23.10;99.90;;;;;;21195493;27;20045;-61
2023/08/19 07:30:12;;;;;;;8.23;6.50;;;24.00;99.90;;;;;;21199946;27;20438;-61
2023/08/19 07:40:13;;;;;;;9.52;8.07;;;24.80;99.90;;;;;;21175944;27;20057;-61
2023/08/19 07:50:16;;;;;;;7.97;6.95;;;25.80;99.90;;;;;;21179652;27;20042;-61
2023/08/19 08:00:17;;;;;;;7.60;6.90;;;26.50;99.90;;;;;;21198924;27;20056;-60
2023/08/19 08:10:19;;;;;;;7.60;6.85;;;26.80;99.90;;;;;;21203824;27;20103;-61
2023/08/19 08:20:22;;;;;;;7.40;6.70;;;26.80;99.90;;;;;;21169495;27;20476;-47
2023/08/19 08:30:24;;;;;;;8.63;7.82;;;27.00;99.90;;;;;;21182558;27;20027;-61
2023/08/19 08:40:28;;;;;;;8.13;7.28;;;27.30;99.90;;;;;;21191704;27;20100;-61
2023/08/19 08:50:30;;;;;;;8.02;6.82;;;27.50;99.90;;;;;;21183902;27;20492;-61
2023/08/19 09:00:33;;;;;;;7.55;6.80;;;27.90;99.90;;;;;;21179319;27;20040;-52
2023/08/19 09:10:37;;;;;;;9.15;7.05;;;28.10;99.90;;;;;;21199224;28;20081;-60
2023/08/19 09:20:41;;;;;;;7.75;6.05;;;28.30;99.90;;;;;;21189531;28;20035;-60
2023/08/19 09:30:43;;;;;;;8.00;7.28;;;28.40;99.80;;;;;;21187702;28;20032;-59
2023/08/19 09:40:45;;;;;;;9.45;7.68;;;28.60;99.90;;;;;;21170654;28;20035;-60
2023/08/19 09:50:47;;;;;;;7.10;6.40;;;28.90;97.90;;;;;;21185110;28;20036;-59
2023/08/19 10:00:49;;;;;;;8.20;6.38;;;29.00;99.30;;;;;;21183672;28;20044;-50
2023/08/19 10:10:52;;;;;;;7.65;5.68;;;29.10;99.50;;;;;;21203348;27;20552;-59
2023/08/19 10:20:57;;;;;;;7.55;6.60;;;29.00;99.00;;;;;;21194561;27;20032;-58
2023/08/19 10:31:07;;;;;;;8.73;6.90;;;29.40;98.70;;;;;;21199999;27;20031;-58
2023/08/19 10:41:18;;;;;;;8.15;6.38;;;29.50;97.30;;;;;;21199954;27;20039;-58
2023/08/19 10:51:21;;;;;;;9.57;8.02;;;29.30;97.30;;;;;;21205479;27;20452;-46
2023/08/19 11:01:24;;;;;;;7.97;6.93;;;29.60;98.40;;;;;;21174344;27;20043;-57
2023/08/19 11:11:26;;;;;;;9.80;6.50;;;29.80;96.40;;;;;;21213357;27;20038;-57
2023/08/19 11:21:28;;;;;;;7.35;6.35;;;29.90;94.90;;;;;;21208769;27;20537;-57
2023/08/19 11:31:32;;;;;;;10.38;7.75;;;30.10;97.10;;;;;;21196734;27;20027;-56
2023/08/19 11:41:35;;;;;;;7.30;6.60;;;30.20;95.50;;;;;;21185923;27;20064;-57
2023/08/19 11:51:39;;;;;;;9.18;8.27;;;30.00;96.50;;;;;;21182072;27;20031;-57
2023/08/19 12:01:41;;;;;;;11.77;8.35;;;30.10;97.10;;;;;;21186519;27;20103;-57
2023/08/19 12:11:48;;;;;;;8.57;7.45;;;30.30;95.30;;;;;;21194162;27;20241;-48
2023/08/19 12:21:50;;;;;;;9.98;8.00;;;29.90;95.70;;;;;;21180318;27;20488;-58
2023/08/19 12:31:53;;;;;;;12.63;9.65;;;29.70;96.30;;;;;;21198244;27;20440;-57
2023/08/19 12:41:55;;;;;;;11.60;8.43;;;29.90;96.10;;;;;;21172604;27;20429;-48
2023/08/19 12:51:57;;;;;;;11.45;9.82;;;30.00;98.00;;;;;;21185355;27;20036;-58
2023/08/19 13:01:59;;;;;;;12.68;10.20;;;30.20;98.30;;;;;;21176022;27;20043;-58
2023/08/19 13:12:03;;;;;;;10.25;9.25;;;30.70;97.60;;;;;;21171518;28;20032;-58
2023/08/19 13:22:04;;;;;;;13.60;11.32;;;30.40;96.40;;;;;;21174222;28;20058;-59
2023/08/19 13:32:08;;;;;;;12.70;11.32;;;30.70;97.40;;;;;;21174973;28;20545;-59
2023/08/19 13:42:10;;;;;;;11.65;9.93;;;30.70;96.50;;;;;;21171345;27;20027;-59
2023/08/19 13:52:49;;;;;;;12.63;11.43;;;30.20;98.50;;;;;;21206622;27;20035;-60
2023/08/19 14:02:51;;;;;;;13.00;11.40;;;30.70;98.40;;;;;;20887245;28;20052;-51
2023/08/19 14:12:53;;;;;;;12.63;11.40;;;30.30;95.60;;;;;;20886581;28;20049;-59
2023/08/19 14:22:55;;;;;;;11.85;10.65;;;30.00;97.70;;;;;;20886987;28;20048;-60
2023/08/19 14:32:57;;;;;;;14.63;12.10;;;29.80;98.30;;;;;;20991134;28;20397;-60
2023/08/19 14:42:59;;;;;;;13.85;12.45;;;29.80;98.00;;;;;;21099110;28;20031;-60
2023/08/19 14:53:03;;;;;;;13.35;12.13;;;30.00;97.30;;;;;;21116000;28;20362;-61
2023/08/19 15:03:06;;;;;;;12.73;11.60;;;29.70;97.80;;;;;;21140515;27;20044;-60
2023/08/19 15:13:07;;;;;;;15.82;13.80;;;28.00;98.60;;;;;;21185973;27;20030;-58
2023/08/19 15:23:09;;;;;;;12.23;10.68;;;26.80;99.90;;;;;;21191530;27;20036;-57
2023/08/19 15:33:11;;;;;;;14.23;12.73;;;25.50;99.90;;;;;;21182478;27;20107;-57
2023/08/19 15:43:12;;;;;;;17.35;14.55;;;24.60;99.90;;;;;;21172300;27;20505;-56
2023/08/19 15:53:14;;;;;;;14.07;12.57;;;24.10;99.90;;;;;;21155329;27;20031;-56
2023/08/19 16:03:16;;;;;;;13.82;11.98;;;24.50;99.90;;;;;;21152181;27;20069;-50
2023/08/19 16:13:17;;;;;;;14.13;12.68;;;25.10;99.90;;;;;;21215660;27;20032;-55
2023/08/19 16:23:19;;;;;;;15.20;13.63;;;25.00;99.90;;;;;;21140102;27;20050;-63
2023/08/19 16:33:22;;;;;;;15.40;13.80;;;24.60;99.90;;;;;;21222321;27;20031;-62
2023/08/19 16:43:24;;;;;;;21.30;15.65;;;23.70;99.90;;;;;;21180479;27;20075;-59
2023/08/19 16:53:28;;;;;;;18.80;16.17;;;23.00;99.90;;;;;;21180160;27;20032;-59
2023/08/19 17:03:30;;;;;;;21.33;18.60;;;22.20;99.90;;;;;;21145143;28;20054;-60
2023/08/19 17:13:33;;;;;;;22.73;20.38;;;21.60;99.90;;;;;;21177921;28;20032;-59
2023/08/19 17:23:35;;;;;;;25.70;21.48;;;21.00;99.90;;;;;;21155923;27;20484;-57
2023/08/19 17:33:37;;;;;;;23.02;19.85;;;20.60;99.90;;;;;;21237347;27;20027;-60
2023/08/19 17:43:39;;;;;;;24.55;21.85;;;20.30;99.90;;;;;;21238160;27;20039;-61
2023/08/19 17:53:41;;;;;;;26.33;21.92;;;20.10;99.90;;;;;;21228528;27;20027;-63
2023/08/19 18:03:43;;;;;;;23.85;21.30;;;19.80;99.90;;;;;;21192928;27;20035;-58
2023/08/19 18:13:45;;;;;;;23.55;19.13;;;19.50;99.90;;;;;;21215725;27;20526;-60
2023/08/19 18:23:48;;;;;;;24.55;19.83;;;19.20;99.90;;;;;;21203177;27;20361;-57
2023/08/19 18:33:50;;;;;;;25.35;22.35;;;19.00;99.90;;;;;;21229524;27;20031;-60
2023/08/19 18:43:52;;;;;;;25.17;21.08;;;18.70;99.90;;;;;;21229960;27;20027;-60
2023/08/19 18:53:54;;;;;;;16.85;15.05;;;18.50;99.90;;;;;;21217522;27;20030;-60
2023/08/19 19:03:58;;;;;;;13.30;10.57;;;18.20;99.90;;;;;;21223019;27;20046;-58
2023/08/19 19:14:00;;;;;;;15.20;11.70;;;18.00;99.90;;;;;;21185052;27;20046;-59
2023/08/19 19:24:02;;;;;;;15.30;13.70;;;17.80;99.90;;;;;;21202616;27;20076;-61
2023/08/19 19:34:04;;;;;;;21.75;16.58;;;17.70;99.90;;;;;;21200771;27;20027;-60
2023/08/19 19:44:09;;;;;;;13.80;12.40;;;17.70;99.90;;;;;;21168370;27;20109;-60
2023/08/19 19:54:12;;;;;;;10.07;8.32;;;17.70;99.90;;;;;;21199989;27;20023;-60
2023/08/19 20:04:14;;;;;;;16.65;11.40;;;17.60;99.90;;;;;;21219106;27;20043;-58
2023/08/19 20:14:17;;;;;;;16.92;13.98;;;17.50;99.90;;;;;;21214946;27;20042;-68
2023/08/19 20:24:21;;;;;;;11.25;10.05;;;17.30;99.90;;;;;;21151393;27;20468;-63
2023/08/19 20:34:23;;;;;;;9.68;7.68;;;17.20;99.90;;;;;;21208092;27;20324;-60
2023/08/19 20:44:25;;;;;;;10.05;8.02;;;17.50;99.90;;;;;;21200002;27;20035;-57
2023/08/19 20:54:28;;;;;;;11.48;10.15;;;17.40;99.90;;;;;;21175469;27;20027;-59
2023/08/19 21:04:30;;;;;;;12.80;11.10;;;17.30;99.90;;;;;;21194831;27;20069;-65
2023/08/19 21:14:35;;;;;;;14.00;10.95;;;17.20;99.90;;;;;;21215668;27;20131;-60
2023/08/19 21:24:37;;;;;;;14.75;11.10;;;17.30;99.90;;;;;;21207486;28;20027;-59
2023/08/19 21:34:40;;;;;;;17.15;14.13;;;17.50;99.90;;;;;;21189921;28;20064;-60
2023/08/19 21:44:42;;;;;;;20.98;13.15;;;17.20;99.90;;;;;;21215757;28;20084;-58
2023/08/19 21:54:44;;;;;;;13.90;11.07;;;17.20;99.90;;;;;;21217717;28;20294;-58
2023/08/19 22:04:46;;;;;;;15.88;10.57;;;17.20;99.90;;;;;;21205744;27;20070;-60
2023/08/19 22:14:48;;;;;;;14.73;12.80;;;17.50;99.90;;;;;;21203345;27;20031;-61
2023/08/19 22:24:50;;;;;;;16.15;11.43;;;17.50;99.90;;;;;;21188319;27;20035;-61
2023/08/19 22:34:52;;;;;;;15.38;11.07;;;17.10;99.90;;;;;;21225258;27;20043;-63
2023/08/19 22:44:54;;;;;;;15.93;12.68;;;17.10;99.90;;;;;;21190906;27;20035;-61
2023/08/19 22:54:56;;;;;;;16.42;12.80;;;16.90;99.90;;;;;;21140072;27;20023;-63
2023/08/19 23:04:59;;;;;;;16.45;13.13;;;17.10;99.90;;;;;;21227513;27;20050;-61
2023/08/19 23:15:01;;;;;;;18.73;11.90;;;17.00;99.90;;;;;;21224836;27;20553;-60
2023/08/19 23:25:03;;;;;;;13.82;7.90;;;16.90;99.90;;;;;;21226955;27;20138;-61
2023/08/19 23:35:05;;;;;;;8.88;7.50;;;17.40;99.90;;;;;;21201174;27;20352;-64
2023/08/19 23:45:07;;;;;;;11.63;7.70;;;17.20;99.90;;;;;;21207585;27;20170;-64
2023/08/19 23:55:10;;;;;;;10.95;7.63;;;16.70;99.90;;;;;;21223430;27;20472;-64
